Piedmont, Alabama
Current Conditions -  °F | °C
As of 7:03 AM on Tuesday 21 Oct 2014 (Local Time) from KANB Reporting Station
Haze Haze  
Wind Chill: 45°   Ceiling: Unl
Heat Index: 45°   Visibility: 4mi
Dew Point: 43°   Wind: 0mph
Humidity: 93%   Direction: NA
Pressure: 30.05"   Gusts: NA
Location:  33.92°N, 85.61°W
Report Text: KANB 211203Z AUTO 00000KT 4SM BR FEW002 07/06 A3005 RMK AO2 T00720061
Loading
Personal Weather Stations






























Interactive Weather Map
Tropical Storm Tracking
New forecast layout! Learn more

10-Day Weather Forecast

Advertisements
Track Severe Weather on mobile